createdAt,value
2017-10-19T00:26:58.427Z,18.40
2017-10-19T00:27:02.816Z,18.40
2017-10-19T00:27:07.889Z,18.50
2017-10-19T00:27:12.227Z,18.50
2017-10-19T00:27:16.675Z,18.37
2017-10-19T00:27:21.743Z,18.05
2017-10-19T00:27:26.071Z,17.95
2017-10-19T00:27:30.376Z,17.93
2017-10-19T00:27:34.645Z,18.00
2017-10-19T00:27:38.905Z,18.00
2017-10-19T00:27:43.173Z,18.03
2017-10-19T00:27:47.452Z,18.10
2017-10-19T00:27:51.736Z,18.10
2017-10-19T00:27:56.006Z,17.95
2017-10-19T00:28:00.315Z,17.97
2017-10-19T00:28:04.609Z,17.80
2017-10-19T00:28:09.647Z,17.80
2017-10-19T00:28:13.902Z,17.80
2017-10-19T00:28:19.051Z,18.07
2017-10-19T00:28:24.474Z,18.00
2017-10-19T00:28:29.945Z,17.83
2017-10-19T00:28:35.156Z,17.58
2017-10-19T00:28:40.107Z,17.70
2017-10-19T00:28:44.728Z,17.90
2017-10-19T00:28:49.022Z,17.97
2017-10-19T00:28:53.305Z,17.85
2017-10-19T00:28:57.577Z,17.80
2017-10-19T00:29:01.899Z,18.03
2017-10-19T00:29:06.155Z,18.10
2017-10-19T00:29:10.466Z,18.00
2017-10-19T00:29:14.767Z,17.90
2017-10-19T00:29:19.193Z,17.70
2017-10-19T00:29:23.659Z,17.70
2017-10-19T00:29:28.993Z,17.93
2017-10-19T00:29:34.125Z,18.10
2017-10-19T00:29:38.627Z,18.07
2017-10-19T00:29:43.401Z,18.07
2017-10-19T00:29:47.710Z,17.87
2017-10-19T00:29:51.977Z,18.00
2017-10-19T00:29:56.261Z,18.20
2017-10-19T00:30:00.547Z,17.90
2017-10-19T00:30:04.835Z,18.00
2017-10-19T00:30:09.872Z,18.20
2017-10-19T00:30:14.152Z,18.17
2017-10-19T00:30:19.464Z,18.70
2017-10-19T00:30:24.005Z,18.80
2017-10-19T00:30:29.255Z,18.85
2017-10-19T00:30:34.851Z,19.02
2017-10-19T00:30:39.507Z,19.00
2017-10-19T00:30:44.152Z,19.10
2017-10-19T00:30:49.189Z,19.00
2017-10-19T00:30:53.453Z,18.95
2017-10-19T00:30:57.759Z,18.75
2017-10-19T00:31:02.036Z,18.80
2017-10-19T00:31:06.303Z,18.55
2017-10-19T00:31:10.598Z,18.60
2017-10-19T00:31:14.875Z,18.75
2017-10-19T00:31:19.908Z,18.45
2017-10-19T00:31:24.929Z,18.67
2017-10-19T00:31:29.219Z,18.53
2017-10-19T00:31:33.509Z,18.20
2017-10-19T00:31:38.559Z,18.10
2017-10-19T00:31:42.847Z,18.00
2017-10-19T00:31:47.134Z,18.15
2017-10-19T00:31:52.190Z,18.37
2017-10-19T00:31:56.505Z,18.30
2017-10-19T00:32:00.787Z,18.10
2017-10-19T00:32:05.814Z,18.20
2017-10-19T00:32:10.087Z,18.30
2017-10-19T00:32:14.346Z,18.20
2017-10-19T00:32:18.648Z,18.20
2017-10-19T00:32:22.922Z,17.85
2017-10-19T00:32:27.229Z,17.80
2017-10-19T00:32:31.504Z,18.05
2017-10-19T00:32:35.763Z,18.10
2017-10-19T00:32:40.840Z,17.75
2017-10-19T00:32:45.158Z,17.73
2017-10-19T00:32:49.448Z,17.80
2017-10-19T00:32:53.767Z,17.80
2017-10-19T00:32:58.064Z,18.13
2017-10-19T00:33:02.335Z,18.40
2017-10-19T00:33:06.647Z,18.40
2017-10-19T00:33:10.960Z,18.23
2017-10-19T00:33:15.227Z,18.10
2017-10-19T00:33:19.498Z,18.15
2017-10-19T00:33:23.808Z,18.20
2017-10-19T00:33:28.852Z,18.00
2017-10-19T00:33:33.159Z,18.00
2017-10-19T00:33:37.524Z,18.00
2017-10-19T00:33:42.571Z,18.15
2017-10-19T00:33:46.829Z,18.10
2017-10-19T00:33:51.112Z,18.20
2017-10-19T00:33:55.387Z,18.25
2017-10-19T00:33:59.652Z,18.15
2017-10-19T00:34:04.686Z,18.27
2017-10-19T00:34:08.968Z,18.57
2017-10-19T00:34:14.017Z,18.70
2017-10-19T00:34:18.274Z,18.80
2017-10-19T00:34:22.559Z,18.70
2017-10-19T00:34:27.645Z,19.13
2017-10-19T00:34:31.935Z,19.27
2017-10-19T00:34:36.206Z,19.20
2017-10-19T00:34:41.242Z,19.10
2017-10-19T00:34:45.527Z,19.33
2017-10-19T00:34:50.628Z,19.27
2017-10-19T00:34:54.909Z,19.47
2017-10-19T00:34:59.172Z,19.60
2017-10-19T00:35:03.521Z,19.35
2017-10-19T00:35:07.786Z,19.10
2017-10-19T00:35:12.057Z,19.15
2017-10-19T00:35:17.139Z,19.10
2017-10-19T00:35:21.392Z,19.03
2017-10-19T00:35:25.687Z,18.90
2017-10-19T00:35:30.783Z,18.85
2017-10-19T00:35:35.048Z,19.03
2017-10-19T00:35:39.338Z,19.60
2017-10-19T00:35:43.601Z,19.63
2017-10-19T00:35:48.650Z,19.55
2017-10-19T00:35:52.959Z,19.17
2017-10-19T00:35:57.283Z,18.75
2017-10-19T00:36:01.563Z,18.80
2017-10-19T00:36:05.824Z,18.80
2017-10-19T00:36:10.899Z,18.55
2017-10-19T00:36:15.204Z,18.40
2017-10-19T00:36:20.568Z,18.47
2017-10-19T00:36:24.933Z,18.53
2017-10-19T00:36:29.210Z,18.47
2017-10-19T00:36:33.725Z,18.60
2017-10-19T00:36:37.994Z,18.15
2017-10-19T00:36:42.359Z,18.13
2017-10-19T00:36:46.756Z,18.10
2017-10-19T00:36:51.162Z,18.25
2017-10-19T00:36:55.428Z,18.40
2017-10-19T00:36:59.931Z,18.45
2017-10-19T00:37:04.517Z,18.77
2017-10-19T00:37:08.986Z,18.80
2017-10-19T00:37:13.418Z,18.90
2017-10-19T00:37:18.257Z,19.17
2017-10-19T00:37:22.597Z,19.25
2017-10-19T00:37:27.081Z,19.40
2017-10-19T00:37:31.515Z,19.20
2017-10-19T00:37:35.895Z,19.25
2017-10-19T00:37:40.297Z,19.40
2017-10-19T00:37:46.334Z,19.20
2017-10-19T00:37:50.640Z,19.20
2017-10-19T00:37:54.916Z,19.30
2017-10-19T00:37:59.204Z,19.30
2017-10-19T00:38:03.482Z,18.95
2017-10-19T00:38:07.737Z,19.00
2017-10-19T00:38:12.032Z,19.00
2017-10-19T00:38:16.323Z,19.05
2017-10-19T00:38:20.579Z,18.90
2017-10-19T00:38:24.858Z,18.83
2017-10-19T00:38:29.128Z,18.65
2017-10-19T00:38:34.245Z,18.80
2017-10-19T00:38:38.534Z,18.80
2017-10-19T00:38:42.809Z,18.93
2017-10-19T00:38:47.857Z,18.90
2017-10-19T00:38:52.611Z,18.83
2017-10-19T00:38:57.079Z,18.90
2017-10-19T00:39:01.334Z,19.00
2017-10-19T00:39:05.624Z,19.20
2017-10-19T00:39:09.931Z,19.40
2017-10-19T00:39:14.209Z,19.15
2017-10-19T00:39:18.523Z,18.90
2017-10-19T00:39:22.830Z,18.93
2017-10-19T00:39:27.099Z,19.25
2017-10-19T00:39:31.372Z,19.10
2017-10-19T00:39:35.653Z,19.00
2017-10-19T00:39:40.709Z,18.90
2017-10-19T00:39:44.979Z,18.87
2017-10-19T00:39:50.058Z,19.00
2017-10-19T00:39:54.306Z,18.90
2017-10-19T00:39:58.592Z,18.87
2017-10-19T00:40:02.853Z,18.90
2017-10-19T00:40:07.105Z,18.65
2017-10-19T00:40:11.421Z,18.40
2017-10-19T00:40:15.694Z,18.60
2017-10-19T00:40:20.064Z,18.55
2017-10-19T00:40:24.353Z,18.43
2017-10-19T00:40:28.621Z,18.30
2017-10-19T00:40:32.906Z,18.20
2017-10-19T00:40:37.188Z,18.20
2017-10-19T00:40:41.481Z,18.23
2017-10-19T00:40:45.863Z,18.10
2017-10-19T00:40:50.239Z,18.20
2017-10-19T00:40:54.589Z,18.47
2017-10-19T00:40:58.963Z,18.50
2017-10-19T00:41:03.326Z,18.50
2017-10-19T00:41:07.662Z,18.45
2017-10-19T00:41:12.167Z,18.40
2017-10-19T00:41:16.464Z,18.30
2017-10-19T00:41:20.768Z,18.40
2017-10-19T00:41:25.055Z,18.40
2017-10-19T00:41:29.338Z,18.30
2017-10-19T00:41:34.370Z,18.40
2017-10-19T00:41:38.643Z,18.53
2017-10-19T00:41:43.712Z,18.60
2017-10-19T00:41:47.995Z,18.53
2017-10-19T00:41:52.284Z,18.10
2017-10-19T00:41:57.391Z,17.80
2017-10-19T00:42:02.454Z,17.90
2017-10-19T00:42:06.765Z,17.93
2017-10-19T00:42:11.045Z,17.87
2017-10-19T00:42:15.328Z,18.10
2017-10-19T00:42:20.386Z,18.10
2017-10-19T00:42:24.655Z,18.27
2017-10-19T00:42:28.952Z,18.30
2017-10-19T00:42:33.261Z,18.25
2017-10-19T00:42:37.527Z,17.95
2017-10-19T00:42:41.794Z,17.90
2017-10-19T00:42:46.128Z,17.80
2017-10-19T00:42:51.201Z,17.90
2017-10-19T00:42:55.655Z,18.07
2017-10-19T00:42:59.962Z,17.80
2017-10-19T00:43:04.380Z,17.90
2017-10-19T00:43:09.504Z,18.00
2017-10-19T00:43:14.168Z,18.17
2017-10-19T00:43:18.444Z,18.10
2017-10-19T00:43:22.709Z,17.97
2017-10-19T00:43:27.758Z,18.15
2017-10-19T00:43:32.048Z,18.27
2017-10-19T00:43:36.327Z,18.30
2017-10-19T00:43:40.693Z,18.57
2017-10-19T00:43:44.998Z,18.70
2017-10-19T00:43:49.302Z,18.50
2017-10-19T00:43:53.577Z,18.50
2017-10-19T00:43:57.927Z,18.50
2017-10-19T00:44:02.188Z,18.35
2017-10-19T00:44:06.521Z,18.30
2017-10-19T00:44:10.782Z,18.40
2017-10-19T00:44:15.075Z,18.30
2017-10-19T00:44:19.334Z,18.30
2017-10-19T00:44:24.405Z,18.30
2017-10-19T00:44:28.695Z,18.03
2017-10-19T00:44:32.945Z,18.05
2017-10-19T00:44:38.009Z,17.95
2017-10-19T00:44:42.264Z,17.93
2017-10-19T00:44:47.323Z,18.17
2017-10-19T00:44:51.600Z,18.33
2017-10-19T00:44:56.656Z,18.40
2017-10-19T00:45:00.946Z,18.47
2017-10-19T00:45:05.205Z,18.55
2017-10-19T00:45:10.320Z,18.50
2017-10-19T00:45:14.577Z,18.27
2017-10-19T00:45:18.859Z,18.20
2017-10-19T00:45:23.138Z,18.05
2017-10-19T00:45:28.200Z,18.00
2017-10-19T00:45:32.484Z,18.10
2017-10-19T00:45:36.797Z,18.10
2017-10-19T00:45:41.058Z,18.05
2017-10-19T00:45:46.112Z,18.07
2017-10-19T00:45:50.431Z,18.07
2017-10-19T00:45:54.722Z,18.10
2017-10-19T00:45:58.993Z,18.25
2017-10-19T00:46:03.289Z,18.30
2017-10-19T00:46:08.318Z,18.30
2017-10-19T00:46:12.588Z,18.30
2017-10-19T00:46:16.866Z,18.35
2017-10-19T00:46:21.157Z,18.43
2017-10-19T00:46:25.435Z,19.10
2017-10-19T00:46:29.750Z,19.40
2017-10-19T00:46:34.015Z,19.40
2017-10-19T00:46:39.067Z,19.35
2017-10-19T00:46:43.353Z,19.07
2017-10-19T00:46:47.621Z,18.85
2017-10-19T00:46:51.892Z,18.80
2017-10-19T00:46:56.191Z,18.70
2017-10-19T00:47:00.452Z,18.75
2017-10-19T00:47:04.739Z,18.80
2017-10-19T00:47:09.033Z,18.83
2017-10-19T00:47:14.072Z,19.10
2017-10-19T00:47:18.325Z,19.27
2017-10-19T00:47:22.597Z,19.30
2017-10-19T00:47:26.875Z,18.73
2017-10-19T00:47:31.147Z,18.80
2017-10-19T00:47:36.178Z,19.10
2017-10-19T00:47:40.446Z,19.07
2017-10-19T00:47:44.709Z,19.10
2017-10-19T00:47:49.048Z,19.00
2017-10-19T00:47:53.319Z,19.00
2017-10-19T00:47:57.622Z,19.00
2017-10-19T00:48:01.881Z,18.83
2017-10-19T00:48:06.178Z,18.80
2017-10-19T00:48:11.204Z,18.70
2017-10-19T00:48:15.521Z,18.33
2017-10-19T00:48:20.897Z,18.40
2017-10-19T00:48:25.425Z,18.83
2017-10-19T00:48:30.631Z,18.90
2017-10-19T00:48:35.146Z,18.93
2017-10-19T00:48:39.568Z,19.10
2017-10-19T00:48:44.114Z,19.23
2017-10-19T00:48:49.143Z,19.65
2017-10-19T00:48:53.416Z,19.90
2017-10-19T00:48:57.679Z,19.83
2017-10-19T00:49:03.369Z,20.00
2017-10-19T00:49:07.684Z,19.85
2017-10-19T00:49:11.949Z,19.85
2017-10-19T00:49:16.312Z,20.15
2017-10-19T00:49:21.770Z,20.00
2017-10-19T00:49:27.215Z,19.53
2017-10-19T00:49:31.503Z,19.35
2017-10-19T00:49:35.956Z,18.95
2017-10-19T00:49:40.723Z,19.00
2017-10-19T00:49:45.300Z,18.90
2017-10-19T00:49:49.907Z,18.90
2017-10-19T00:49:54.412Z,18.90
2017-10-19T00:49:58.754Z,18.80
2017-10-19T00:50:03.059Z,18.80
2017-10-19T00:50:07.645Z,18.80
2017-10-19T00:50:12.920Z,18.90
2017-10-19T00:50:17.188Z,18.80
2017-10-19T00:50:21.467Z,18.90
2017-10-19T00:50:26.511Z,19.15
2017-10-19T00:50:30.806Z,19.17
2017-10-19T00:50:35.083Z,19.20
2017-10-19T00:50:40.135Z,19.13
2017-10-19T00:50:44.429Z,19.17
2017-10-19T00:50:48.695Z,19.15
2017-10-19T00:50:52.971Z,19.40
2017-10-19T00:50:57.250Z,19.43
2017-10-19T00:51:01.538Z,19.50
2017-10-19T00:51:05.814Z,19.50
2017-10-19T00:51:10.190Z,19.40
2017-10-19T00:51:14.457Z,19.30
2017-10-19T00:51:18.733Z,19.10
2017-10-19T00:51:23.031Z,19.03
2017-10-19T00:51:27.300Z,18.95
2017-10-19T00:51:32.339Z,18.80
2017-10-19T00:51:36.675Z,18.70
2017-10-19T00:51:40.972Z,18.60
2017-10-19T00:51:45.257Z,18.60
2017-10-19T00:51:50.501Z,18.45
2017-10-19T00:51:54.871Z,18.20
2017-10-19T00:51:59.358Z,18.13
2017-10-19T00:52:03.989Z,18.10
2017-10-19T00:52:09.123Z,18.17
2017-10-19T00:52:13.575Z,18.00
2017-10-19T00:52:17.845Z,18.10
2017-10-19T00:52:22.128Z,18.05
2017-10-19T00:52:26.415Z,18.00
2017-10-19T00:52:30.690Z,17.95
2017-10-19T00:52:35.724Z,18.60
2017-10-19T00:52:40.772Z,18.80
2017-10-19T00:52:45.782Z,18.80
2017-10-19T00:52:50.085Z,18.83
2017-10-19T00:52:55.112Z,19.15
2017-10-19T00:52:59.370Z,19.20
2017-10-19T00:53:04.424Z,19.23
2017-10-19T00:53:08.694Z,19.53
2017-10-19T00:53:13.734Z,19.50
2017-10-19T00:53:18.020Z,19.50
2017-10-19T00:53:23.047Z,19.50
2017-10-19T00:53:27.303Z,19.63
2017-10-19T00:53:31.586Z,19.50
2017-10-19T00:53:35.887Z,18.90
2017-10-19T00:53:40.147Z,19.05
2017-10-19T00:53:44.417Z,19.00
2017-10-19T00:53:48.731Z,18.77
2017-10-19T00:53:53.022Z,18.60
2017-10-19T00:53:58.061Z,18.30
2017-10-19T00:54:03.086Z,18.37
2017-10-19T00:54:07.342Z,18.08
2017-10-19T00:54:11.646Z,18.05
2017-10-19T00:54:15.928Z,18.10
2017-10-19T00:54:20.268Z,18.10
2017-10-19T00:54:24.594Z,18.10
2017-10-19T00:54:29.616Z,18.00
2017-10-19T00:54:33.865Z,18.03
2017-10-19T00:54:38.202Z,18.30
2017-10-19T00:54:42.649Z,18.43
2017-10-19T00:54:46.935Z,18.45
2017-10-19T00:54:51.268Z,18.50
2017-10-19T00:54:55.537Z,18.60
2017-10-19T00:54:59.807Z,18.60
2017-10-19T00:55:04.874Z,18.65
2017-10-19T00:55:09.125Z,19.10
2017-10-19T00:55:13.437Z,19.10
2017-10-19T00:55:18.492Z,18.90
2017-10-19T00:55:22.764Z,18.80
2017-10-19T00:55:27.044Z,18.90
2017-10-19T00:55:31.317Z,18.83
2017-10-19T00:55:35.576Z,18.65
2017-10-19T00:55:39.880Z,18.25
2017-10-19T00:55:44.166Z,18.10
2017-10-19T00:55:48.447Z,18.10
2017-10-19T00:55:52.885Z,18.15
2017-10-19T00:55:57.260Z,18.20
2017-10-19T00:56:01.546Z,18.30
2017-10-19T00:56:05.822Z,18.10
2017-10-19T00:56:10.147Z,18.30
2017-10-19T00:56:14.417Z,18.40
2017-10-19T00:56:18.699Z,18.40
2017-10-19T00:56:23.021Z,18.53
2017-10-19T00:56:27.303Z,18.80
2017-10-19T00:56:31.611Z,18.80
2017-10-19T00:56:35.903Z,19.00
2017-10-19T00:56:40.231Z,19.35
2017-10-19T00:56:44.497Z,19.45
2017-10-19T00:56:48.796Z,19.60
2017-10-19T00:56:53.080Z,19.50
2017-10-19T00:56:58.123Z,19.50
2017-10-19T00:57:02.446Z,19.43
2017-10-19T00:57:06.720Z,19.17
2017-10-19T00:57:11.039Z,18.85
2017-10-19T00:57:15.297Z,18.80
2017-10-19T00:57:19.647Z,18.80
2017-10-19T00:57:23.978Z,18.53
2017-10-19T00:57:29.041Z,18.35
2017-10-19T00:57:33.305Z,18.30
2017-10-19T00:57:37.604Z,18.20
2017-10-19T00:57:42.713Z,18.30
2017-10-19T00:57:47.001Z,18.00
2017-10-19T00:57:51.343Z,17.80
2017-10-19T00:57:55.654Z,17.80
2017-10-19T00:57:59.957Z,17.75
2017-10-19T00:58:04.252Z,18.05
2017-10-19T00:58:08.589Z,18.40
2017-10-19T00:58:12.897Z,18.50
2017-10-19T00:58:17.191Z,18.70
2017-10-19T00:58:21.483Z,18.80
2017-10-19T00:58:25.777Z,18.45
2017-10-19T00:58:30.046Z,18.40
2017-10-19T00:58:35.117Z,18.25
2017-10-19T00:58:39.417Z,17.95
2017-10-19T00:58:43.702Z,17.90
2017-10-19T00:58:48.756Z,17.90
2017-10-19T00:58:53.033Z,17.90
2017-10-19T00:58:57.331Z,18.00
2017-10-19T00:59:02.039Z,17.85
2017-10-19T00:59:07.077Z,17.53
2017-10-19T00:59:11.380Z,17.43
2017-10-19T00:59:15.687Z,17.30
2017-10-19T00:59:20.243Z,17.30
2017-10-19T00:59:24.876Z,17.57
2017-10-19T00:59:30.317Z,17.80
2017-10-19T00:59:34.663Z,17.93
2017-10-19T00:59:39.208Z,18.10
2017-10-19T00:59:43.692Z,18.20
2017-10-19T00:59:48.752Z,18.55
2017-10-19T00:59:53.853Z,18.70
2017-10-19T00:59:58.199Z,18.45
2017-10-19T01:00:02.477Z,18.55
2017-10-19T01:00:06.752Z,18.70
2017-10-19T01:00:11.095Z,19.07
2017-10-19T01:00:15.398Z,19.10
2017-10-19T01:00:20.488Z,18.90
2017-10-19T01:00:24.767Z,18.80
2017-10-19T01:00:29.076Z,19.00
2017-10-19T01:00:33.361Z,19.10
2017-10-19T01:00:37.656Z,19.20
2017-10-19T01:00:42.768Z,19.07
2017-10-19T01:00:47.803Z,18.60
2017-10-19T01:00:52.838Z,18.50
2017-10-19T01:00:57.227Z,18.53
2017-10-19T01:01:02.257Z,18.40
2017-10-19T01:01:06.538Z,18.20
2017-10-19T01:01:11.591Z,18.03
2017-10-19T01:01:15.904Z,18.10
2017-10-19T01:01:20.179Z,18.05
2017-10-19T01:01:24.488Z,18.10
2017-10-19T01:01:28.790Z,18.10
2017-10-19T01:01:33.088Z,18.20
2017-10-19T01:01:37.375Z,18.15
2017-10-19T01:01:41.661Z,18.05
2017-10-19T01:01:46.756Z,18.23
2017-10-19T01:01:51.364Z,18.40
2017-10-19T01:01:55.852Z,18.63
2017-10-19T01:02:00.325Z,18.70
2017-10-19T01:02:05.040Z,18.80
2017-10-19T01:02:09.359Z,18.85
2017-10-19T01:02:13.904Z,18.77
2017-10-19T01:02:18.311Z,18.85
2017-10-19T01:02:22.835Z,18.73
2017-10-19T01:02:27.248Z,18.70
2017-10-19T01:02:31.767Z,18.43
2017-10-19T01:02:36.138Z,18.30
2017-10-19T01:02:41.423Z,18.20
2017-10-19T01:02:45.873Z,18.17
2017-10-19T01:02:50.951Z,18.25
2017-10-19T01:02:55.220Z,18.23
2017-10-19T01:03:00.339Z,18.10
2017-10-19T01:03:04.626Z,17.93
2017-10-19T01:03:08.947Z,17.85
2017-10-19T01:03:13.228Z,18.15
2017-10-19T01:03:17.517Z,18.17
2017-10-19T01:03:22.604Z,18.05
2017-10-19T01:03:27.674Z,18.03
2017-10-19T01:03:32.740Z,18.20
2017-10-19T01:03:37.007Z,18.47
2017-10-19T01:03:41.301Z,18.70
2017-10-19T01:03:45.596Z,18.75
2017-10-19T01:03:50.630Z,18.65
2017-10-19T01:03:54.920Z,18.50
2017-10-19T01:03:59.239Z,18.50
2017-10-19T01:04:03.499Z,18.50
2017-10-19T01:04:08.558Z,18.65
2017-10-19T01:04:12.860Z,18.63
2017-10-19T01:04:17.156Z,18.60
2017-10-19T01:04:21.433Z,18.80
2017-10-19T01:04:25.753Z,18.95
2017-10-19T01:04:30.090Z,19.40
2017-10-19T01:04:34.376Z,19.77
2017-10-19T01:04:38.650Z,19.35
2017-10-19T01:04:42.920Z,19.30
2017-10-19T01:04:47.982Z,19.13
2017-10-19T01:04:52.271Z,19.17
2017-10-19T01:04:56.596Z,18.75
2017-10-19T01:05:00.866Z,18.90
2017-10-19T01:05:05.894Z,19.00
2017-10-19T01:05:10.272Z,18.67
2017-10-19T01:05:15.301Z,18.40
2017-10-19T01:05:19.588Z,18.30
2017-10-19T01:05:24.610Z,18.30
2017-10-19T01:05:29.701Z,18.52
2017-10-19T01:05:33.987Z,18.53
2017-10-19T01:05:38.367Z,18.55
2017-10-19T01:05:42.631Z,18.60
2017-10-19T01:05:46.956Z,18.90
2017-10-19T01:05:54.197Z,18.65
2017-10-19T01:05:59.288Z,18.40
2017-10-19T01:06:03.593Z,18.33
2017-10-19T01:06:07.863Z,18.33
2017-10-19T01:06:12.133Z,18.60
2017-10-19T01:06:17.160Z,18.70
2017-10-19T01:06:21.434Z,18.77
2017-10-19T01:06:25.735Z,18.77
2017-10-19T01:06:30.015Z,18.40
2017-10-19T01:06:34.293Z,18.40
2017-10-19T01:06:38.591Z,18.30
2017-10-19T01:06:42.932Z,18.23
2017-10-19T01:06:47.217Z,18.00
2017-10-19T01:06:51.483Z,18.10
2017-10-19T01:06:55.845Z,18.20
2017-10-19T01:07:00.155Z,18.10
2017-10-19T01:07:04.465Z,18.25
2017-10-19T01:07:09.541Z,18.10
2017-10-19T01:07:13.818Z,17.97
2017-10-19T01:07:18.108Z,17.90
2017-10-19T01:07:22.442Z,17.90
2017-10-19T01:07:26.778Z,18.00
2017-10-19T01:07:31.836Z,18.10
2017-10-19T01:07:36.963Z,18.23
2017-10-19T01:07:41.227Z,18.30
2017-10-19T01:07:46.274Z,18.37
2017-10-19T01:07:50.549Z,18.23
2017-10-19T01:07:55.597Z,18.30
2017-10-19T01:07:59.891Z,18.23
2017-10-19T01:08:04.204Z,18.15
2017-10-19T01:08:08.498Z,18.13
2017-10-19T01:08:12.822Z,18.30
2017-10-19T01:08:17.083Z,18.35
2017-10-19T01:08:21.451Z,18.40
2017-10-19T01:08:26.254Z,18.20
2017-10-19T01:08:31.028Z,18.10
2017-10-19T01:08:35.674Z,17.90
2017-10-19T01:08:40.303Z,17.80
2017-10-19T01:08:44.687Z,17.83
2017-10-19T01:08:48.942Z,17.90
2017-10-19T01:08:53.298Z,17.97
2017-10-19T01:08:57.613Z,18.15
2017-10-19T01:09:01.884Z,18.30
2017-10-19T01:09:06.157Z,18.33
2017-10-19T01:09:10.475Z,18.35
2017-10-19T01:09:14.733Z,18.20
2017-10-19T01:09:19.017Z,18.27
2017-10-19T01:09:24.149Z,18.05
2017-10-19T01:09:29.448Z,18.03
2017-10-19T01:09:34.540Z,17.87
2017-10-19T01:09:38.876Z,17.93
2017-10-19T01:09:43.366Z,17.97
2017-10-19T01:09:47.624Z,17.90
2017-10-19T01:09:51.909Z,18.10
2017-10-19T01:09:56.937Z,17.90
2017-10-19T01:10:01.212Z,17.87
2017-10-19T01:10:06.250Z,17.70
2017-10-19T01:10:10.513Z,17.50
2017-10-19T01:10:14.781Z,17.57
2017-10-19T01:10:19.053Z,17.45
2017-10-19T01:10:23.332Z,17.70
2017-10-19T01:10:28.401Z,17.70
2017-10-19T01:10:32.713Z,17.90
2017-10-19T01:10:37.009Z,18.07
2017-10-19T01:10:41.278Z,18.30
2017-10-19T01:10:45.545Z,18.00
2017-10-19T01:10:49.900Z,17.90
2017-10-19T01:10:54.157Z,17.90
2017-10-19T01:10:59.189Z,17.90
2017-10-19T01:11:04.228Z,18.17
2017-10-19T01:11:08.503Z,18.30
2017-10-19T01:11:12.816Z,18.43
2017-10-19T01:11:17.853Z,18.60
2017-10-19T01:11:22.120Z,18.37
2017-10-19T01:11:27.159Z,18.20
2017-10-19T01:11:31.440Z,18.00
2017-10-19T01:11:36.504Z,18.00
2017-10-19T01:11:40.797Z,18.00
2017-10-19T01:11:45.866Z,18.00
2017-10-19T01:11:50.175Z,17.90
2017-10-19T01:11:54.463Z,17.70
2017-10-19T01:11:58.747Z,17.65
2017-10-19T01:12:03.031Z,17.60
2017-10-19T01:12:07.281Z,17.45
2017-10-19T01:12:11.571Z,17.23
2017-10-19T01:12:16.687Z,17.20
2017-10-19T01:12:20.958Z,17.20
2017-10-19T01:12:25.263Z,17.60
2017-10-19T01:12:29.647Z,17.87
2017-10-19T01:12:33.927Z,17.90
2017-10-19T01:12:38.182Z,17.80
2017-10-19T01:12:42.468Z,17.80
2017-10-19T01:12:46.777Z,17.80
2017-10-19T01:12:51.047Z,17.90
2017-10-19T01:12:55.593Z,18.07
2017-10-19T01:12:59.848Z,18.00
2017-10-19T01:13:04.108Z,18.10
2017-10-19T01:13:08.389Z,18.27
2017-10-19T01:13:12.685Z,18.50
2017-10-19T01:13:16.970Z,18.50
2017-10-19T01:13:21.255Z,18.50
2017-10-19T01:13:25.528Z,18.35
2017-10-19T01:13:29.813Z,18.40
2017-10-19T01:13:34.868Z,18.50
2017-10-19T01:13:39.189Z,18.30
2017-10-19T01:13:43.466Z,18.25
2017-10-19T01:13:47.753Z,18.30
2017-10-19T01:13:52.789Z,18.30
2017-10-19T01:13:57.097Z,18.20
2017-10-19T01:14:01.361Z,18.30
2017-10-19T01:14:06.415Z,18.35
2017-10-19T01:14:10.694Z,18.50
2017-10-19T01:14:15.747Z,18.37
2017-10-19T01:14:20.002Z,18.17
2017-10-19T01:14:25.042Z,18.00
2017-10-19T01:14:29.348Z,17.70
2017-10-19T01:14:33.626Z,17.60
2017-10-19T01:14:38.649Z,17.73
2017-10-19T01:14:42.964Z,18.20
2017-10-19T01:14:47.312Z,18.30
2017-10-19T01:14:51.691Z,18.25
2017-10-19T01:14:56.772Z,18.07
2017-10-19T01:15:01.287Z,17.93
2017-10-19T01:15:06.434Z,17.85
2017-10-19T01:15:11.117Z,17.45
2017-10-19T01:15:15.540Z,17.50
2017-10-19T01:15:19.801Z,17.60
2017-10-19T01:15:24.076Z,17.50
2017-10-19T01:15:28.358Z,17.50
2017-10-19T01:15:32.638Z,17.67
2017-10-19T01:15:36.944Z,17.70
2017-10-19T01:15:41.207Z,17.45
2017-10-19T01:15:45.587Z,17.30
2017-10-19T01:15:50.828Z,17.33
2017-10-19T01:15:55.249Z,17.40
2017-10-19T02:29:33.373Z,19.60
2017-10-19T02:29:37.646Z,19.87
2017-10-19T02:29:41.925Z,19.90
2017-10-19T02:29:47.156Z,19.80
2017-10-19T02:29:51.479Z,19.80
2017-10-19T02:29:55.791Z,19.80
2017-10-19T02:30:00.084Z,19.90
2017-10-19T02:30:04.401Z,19.93
2017-10-19T02:30:08.668Z,19.85
2017-10-19T02:30:12.937Z,20.05
2017-10-19T02:30:18.096Z,20.10
2017-10-19T02:30:22.375Z,19.93
2017-10-19T02:30:27.013Z,19.90
2017-10-19T02:30:31.310Z,19.90
2017-10-19T02:30:35.743Z,19.75
2017-10-19T02:30:40.393Z,19.60
2017-10-19T02:30:45.794Z,19.77
2017-10-19T02:30:50.860Z,19.90
2017-10-19T02:30:55.198Z,20.00
2017-10-19T02:30:59.466Z,20.30
2017-10-19T02:31:03.741Z,20.45
2017-10-19T02:31:08.777Z,20.75
2017-10-19T02:31:13.056Z,20.97
2017-10-19T02:31:17.320Z,21.15
2017-10-19T02:31:21.594Z,21.55
2017-10-19T02:31:25.852Z,21.50
2017-10-19T02:31:30.897Z,21.57
2017-10-19T02:31:35.178Z,21.63
2017-10-19T02:31:39.433Z,21.85
2017-10-19T02:31:43.689Z,21.90
2017-10-19T02:31:48.018Z,22.00
2017-10-19T02:31:52.291Z,22.00
2017-10-19T02:31:57.308Z,21.95
2017-10-19T02:32:01.668Z,21.67
2017-10-19T02:32:05.945Z,21.63
2017-10-19T02:32:10.229Z,21.35
2017-10-19T02:32:14.490Z,20.80
2017-10-19T02:32:18.801Z,20.50
2017-10-19T02:32:23.318Z,20.30
2017-10-19T02:32:27.822Z,20.20
2017-10-19T02:32:32.148Z,20.23
2017-10-19T02:32:36.650Z,20.40
2017-10-19T02:32:41.927Z,20.47
2017-10-19T02:32:47.179Z,20.17
2017-10-19T02:32:52.222Z,20.20
2017-10-19T02:32:56.874Z,20.20
2017-10-19T02:33:01.178Z,20.20
2017-10-19T02:33:05.449Z,20.05
2017-10-19T02:33:09.776Z,19.87
2017-10-19T02:33:14.039Z,20.05
2017-10-19T02:33:18.337Z,20.35
2017-10-19T02:33:22.630Z,20.83
2017-10-19T02:33:27.052Z,20.70
2017-10-19T02:33:31.441Z,20.70
2017-10-19T02:33:35.752Z,20.40
2017-10-19T02:33:40.432Z,20.35
2017-10-19T02:33:45.503Z,20.47
2017-10-19T02:33:49.791Z,20.40
2017-10-19T02:33:54.073Z,20.30
2017-10-19T02:33:58.398Z,20.77
2017-10-19T02:34:02.707Z,21.00
2017-10-19T02:34:07.036Z,21.10
2017-10-19T02:34:11.333Z,21.30
2017-10-19T02:34:15.604Z,21.25
2017-10-19T02:34:19.923Z,20.90
2017-10-19T02:34:24.179Z,20.90
2017-10-19T02:34:28.504Z,21.23
2017-10-19T02:34:32.803Z,21.10
2017-10-19T02:34:37.097Z,20.85
2017-10-19T02:34:41.374Z,20.80
2017-10-19T02:34:46.417Z,20.80
2017-10-19T02:34:50.695Z,20.80
2017-10-19T02:34:55.756Z,20.85
2017-10-19T02:35:00.044Z,20.60
2017-10-19T02:35:04.368Z,20.60
2017-10-19T02:35:08.635Z,20.50
2017-10-19T02:35:12.956Z,20.40
2017-10-19T02:35:17.317Z,20.63
2017-10-19T02:35:22.394Z,20.90
2017-10-19T02:35:27.037Z,20.67
2017-10-19T02:35:31.300Z,20.73
2017-10-19T02:35:35.624Z,20.75
2017-10-19T02:35:39.936Z,20.90
2017-10-19T02:35:44.980Z,20.73
2017-10-19T02:35:49.253Z,20.77
2017-10-19T02:35:54.305Z,20.70
2017-10-19T02:35:58.580Z,20.60
2017-10-19T02:36:03.697Z,20.70
2017-10-19T02:36:07.973Z,21.17
2017-10-19T02:36:12.278Z,21.15
2017-10-19T02:36:16.551Z,20.85
2017-10-19T02:36:20.829Z,20.53
2017-10-19T02:36:25.090Z,20.50
2017-10-19T02:36:29.349Z,20.40
2017-10-19T02:36:33.609Z,20.55
2017-10-19T02:36:38.629Z,20.70
2017-10-19T02:36:43.723Z,20.80
2017-10-19T02:36:48.013Z,20.90
2017-10-19T02:36:52.270Z,20.95
2017-10-19T02:36:56.526Z,21.05
2017-10-19T02:37:00.823Z,20.87
2017-10-19T02:37:05.119Z,20.45
2017-10-19T02:37:09.383Z,20.40
2017-10-19T02:37:13.664Z,20.67
2017-10-19T02:37:17.942Z,21.25
2017-10-19T02:37:22.247Z,21.25
2017-10-19T02:37:27.269Z,21.35
2017-10-19T02:37:32.344Z,21.50
2017-10-19T02:37:36.625Z,21.60
2017-10-19T02:37:40.894Z,21.45
2017-10-19T02:37:45.984Z,21.55
2017-10-19T02:37:50.248Z,21.43
2017-10-19T02:37:54.511Z,21.50
2017-10-19T02:37:59.661Z,21.60
2017-10-19T02:38:03.946Z,21.90
2017-10-19T02:38:08.984Z,22.15
2017-10-19T02:38:13.272Z,22.00
2017-10-19T02:38:17.587Z,21.60
2017-10-19T02:38:21.842Z,21.75